MMTOMRLB

Guest
Details From MMTO - Toluca Lic. Adolfo Lopez Mateos
To MRLB - Daniel Oduber Quiros Intl
Flight Number -
Tags generated
Created
Modified
Stats Distance 969 nm / 1,794 km
Max Altitude 35,000 ft / 10,668 m
Waypoints 4
Social Downloads 1
Likes 0
Share VATSIM

Download

Looking for another format? Having issues loading an existing format? Contact us
Advertisement - Login to hide

Notes

Basic altitude profile: - Ascent Rate: 2500ft/min - Ascent Speed: 250kts - Cruise Altitude: 41000ft - Cruise Speed: 470kts - Descent Rate: 1500ft/min - Descent Speed: 250kts Options: - Use NATs: yes - Use PACOTS: no - Use low airways: no - Use high airways: no

Route

MMTO 1700N09500W 1400N09000W MRLB

ID Type Via Altitude Latitude Longitude Leg Dist Tot Dist Heading (true) Name
O MMTO APT - 0 ft / 0 m 19.33707˚ -99.56601˚ - 0 nm - Toluca Lic. Adolfo Lopez Mateos
1700N09500W LATLON - 35,000 ft / 10,668 m 17.00000˚ -95.00000˚ 295 nm 295 nm 118° / 119° -
1400N09000W LATLON - 35,000 ft / 10,668 m 14.00000˚ -90.00000˚ 340 nm 636 nm 121° / 123° -
O MRLB APT - 0 ft / 0 m 10.59329˚ -85.54441˚ 331 nm 968 nm 128° / 129° Daniel Oduber Quiros Intl

Altitude Profile

Advertisement - Login to hide

Weather


0- 5 10 15 20 25 30 35+ Temperature / ° C

Clouds and Precipitation
Forecast for 2017-12-14 06:00 UTC. Updated 2 hours ago

Ground ~20,000 ft ~40,000 ft Winds

MMTO

Details ICAO MMTO (TLC)
Name Toluca Lic. Adolfo Lopez Mateos
Region Mexico
Timezone America/Mexico_City (UTC-6.0)
Stats Elevation 8,466 ft / 2,580 m (AMSL)
Location 19.337072° -99.566007°
Runways 1
Magnetic Variation 4.854° E

METAR

MMTO 140346Z 04005KT 6SM SKC 05/M01 A3036 RMK HZY FU

Decode

TAF

Not found

Departure Runways

ID Width Length Bearing (true) Bearing (mag) Surface Threshold Offset Overrun Length
15 148 ft / 45 m 13,825 ft / 4,214 m 156.90° 152.05° Asphalt 0 ft / 0 m 194 ft / 59 m
33 148 ft / 45 m 13,825 ft / 4,214 m 336.91° 332.06° Asphalt 545 ft / 166 m 194 ft / 59 m

MRLB

Details ICAO MRLB (LIR)
Name Daniel Oduber Quiros Intl
Region Costa Rica
Timezone America/Costa_Rica (UTC-6.0)
Stats Elevation 270 ft / 82 m (AMSL)
Location 10.593289° -85.544410°
Runways 1
Magnetic Variation 1.041° W

METAR

MRLB 140400Z 08013KT CAVOK 24/18 A2991 NOSIG

Decode

TAF

TAF MRLB 132300Z 1400/1424 08015KT 9999 SCT035 TX30/1419Z TN20/1411Z TEMPO 1410/1414 VRB02KT

Decode

Destination Runways

ID Width Length Bearing (true) Bearing (mag) Surface Threshold Offset Overrun Length
07 148 ft / 45 m 9,068 ft / 2,764 m 70.05° 71.09° Asphalt 0 ft / 0 m 0 ft / 0 m
25 148 ft / 45 m 9,068 ft / 2,764 m 250.05° 251.09° Asphalt 0 ft / 0 m 0 ft / 0 m

Popular Alternatives